sensor_id;sensor_type;location;lat;lon;timestamp;pressure;altitude;pressure_sealevel;temperature;humidity
48846;BME280;34665;51.886;5.436;2023-03-23T00:00:50;100088.38;;;17.75;100.00
48846;BME280;34665;51.886;5.436;2023-03-23T00:03:16;100074.38;;;17.78;100.00
48846;BME280;34665;51.886;5.436;2023-03-23T00:05:42;100076.88;;;17.90;100.00
48846;BME280;34665;51.886;5.436;2023-03-23T00:08:15;100081.41;;;17.79;100.00
48846;BME280;34665;51.886;5.436;2023-03-23T00:10:41;100096.81;;;17.78;100.00
48846;BME280;34665;51.886;5.436;2023-03-23T00:13:06;100101.16;;;17.85;100.00
48846;BME280;34665;51.886;5.436;2023-03-23T00:15:33;100083.97;;;17.53;100.00
48846;BME280;34665;51.886;5.436;2023-03-23T00:17:58;100090.00;;;17.71;100.00
48846;BME280;34665;51.886;5.436;2023-03-23T00:20:28;100114.47;;;17.91;100.00
48846;BME280;34665;51.886;5.436;2023-03-23T00:23:05;100086.84;;;17.89;100.00
48846;BME280;34665;51.886;5.436;2023-03-23T00:25:32;100080.13;;;17.97;100.00
48846;BME280;34665;51.886;5.436;2023-03-23T00:27:57;100081.00;;;18.03;100.00
48846;BME280;34665;51.886;5.436;2023-03-23T00:30:23;100098.91;;;18.14;100.00
48846;BME280;34665;51.886;5.436;2023-03-23T00:32:48;100101.50;;;17.99;100.00
48846;BME280;34665;51.886;5.436;2023-03-23T00:35:15;100099.88;;;17.49;100.00
48846;BME280;34665;51.886;5.436;2023-03-23T00:37:42;100095.19;;;17.34;100.00
48846;BME280;34665;51.886;5.436;2023-03-23T00:40:09;100079.88;;;17.13;100.00
48846;BME280;34665;51.886;5.436;2023-03-23T00:42:36;100061.75;;;17.51;100.00
48846;BME280;34665;51.886;5.436;2023-03-23T00:45:03;100057.97;;;17.09;100.00
48846;BME280;34665;51.886;5.436;2023-03-23T00:47:36;100035.31;;;17.53;100.00
48846;BME280;34665;51.886;5.436;2023-03-23T00:50:03;100021.28;;;17.61;100.00
48846;BME280;34665;51.886;5.436;2023-03-23T00:52:30;100019.75;;;17.28;100.00
48846;BME280;34665;51.886;5.436;2023-03-23T00:54:56;100026.28;;;17.37;100.00
48846;BME280;34665;51.886;5.436;2023-03-23T00:57:23;100006.78;;;17.30;100.00
48846;BME280;34665;51.886;5.436;2023-03-23T00:59:52;100006.31;;;17.43;100.00
48846;BME280;34665;51.886;5.436;2023-03-23T01:02:17;99999.22;;;17.32;100.00
48846;BME280;34665;51.886;5.436;2023-03-23T01:04:45;100001.84;;;17.70;100.00
48846;BME280;34665;51.886;5.436;2023-03-23T01:07:10;100014.19;;;17.50;100.00
48846;BME280;34665;51.886;5.436;2023-03-23T01:09:38;100010.66;;;17.44;100.00
48846;BME280;34665;51.886;5.436;2023-03-23T01:12:11;100015.19;;;17.33;100.00
48846;BME280;34665;51.886;5.436;2023-03-23T01:14:37;100013.47;;;17.22;100.00
48846;BME280;34665;51.886;5.436;2023-03-23T01:17:03;100033.06;;;17.40;100.00
48846;BME280;34665;51.886;5.436;2023-03-23T01:19:28;100022.28;;;17.50;100.00
48846;BME280;34665;51.886;5.436;2023-03-23T01:21:54;99983.88;;;17.43;100.00
48846;BME280;34665;51.886;5.436;2023-03-23T01:24:20;99986.25;;;17.92;100.00
48846;BME280;34665;51.886;5.436;2023-03-23T01:26:45;99990.75;;;17.66;100.00
48846;BME280;34665;51.886;5.436;2023-03-23T01:29:10;99989.84;;;17.45;100.00
48846;BME280;34665;51.886;5.436;2023-03-23T01:31:36;99996.06;;;17.45;100.00
48846;BME280;34665;51.886;5.436;2023-03-23T01:34:04;99977.25;;;17.71;100.00
48846;BME280;34665;51.886;5.436;2023-03-23T01:36:30;99982.47;;;17.30;100.00
48846;BME280;34665;51.886;5.436;2023-03-23T01:39:00;99968.28;;;17.55;100.00
48846;BME280;34665;51.886;5.436;2023-03-23T01:41:26;99982.00;;;17.43;100.00
48846;BME280;34665;51.886;5.436;2023-03-23T01:43:59;99982.88;;;17.54;100.00
48846;BME280;34665;51.886;5.436;2023-03-23T01:46:32;99981.06;;;17.81;100.00
48846;BME280;34665;51.886;5.436;2023-03-23T01:49:00;99973.13;;;17.53;100.00
48846;BME280;34665;51.886;5.436;2023-03-23T01:51:31;99972.06;;;17.54;100.00
48846;BME280;34665;51.886;5.436;2023-03-23T01:53:59;99980.75;;;17.72;100.00
48846;BME280;34665;51.886;5.436;2023-03-23T01:56:29;99977.88;;;17.99;100.00
48846;BME280;34665;51.886;5.436;2023-03-23T01:58:58;99984.50;;;17.55;100.00
48846;BME280;34665;51.886;5.436;2023-03-23T02:01:24;99981.75;;;17.50;100.00
48846;BME280;34665;51.886;5.436;2023-03-23T02:03:51;99981.81;;;17.60;100.00
48846;BME280;34665;51.886;5.436;2023-03-23T02:06:18;99967.13;;;17.46;100.00
48846;BME280;34665;51.886;5.436;2023-03-23T02:09:01;99966.16;;;17.73;100.00
48846;BME280;34665;51.886;5.436;2023-03-23T02:11:27;99961.31;;;17.75;100.00
48846;BME280;34665;51.886;5.436;2023-03-23T02:13:52;99947.78;;;17.70;100.00
48846;BME280;34665;51.886;5.436;2023-03-23T02:18:58;99964.00;;;17.75;100.00
48846;BME280;34665;51.886;5.436;2023-03-23T02:21:28;99962.38;;;17.69;100.00
48846;BME280;34665;51.886;5.436;2023-03-23T02:24:07;99961.53;;;17.63;100.00
48846;BME280;34665;51.886;5.436;2023-03-23T02:29:17;99967.69;;;17.48;100.00
48846;BME280;34665;51.886;5.436;2023-03-23T02:32:01;99965.06;;;17.63;100.00
48846;BME280;34665;51.886;5.436;2023-03-23T02:34:44;99968.84;;;17.68;100.00
48846;BME280;34665;51.886;5.436;2023-03-23T02:37:14;99962.41;;;17.79;100.00
48846;BME280;34665;51.886;5.436;2023-03-23T02:39:53;99968.19;;;18.03;100.00
48846;BME280;34665;51.886;5.436;2023-03-23T02:42:23;99967.00;;;17.84;100.00
48846;BME280;34665;51.886;5.436;2023-03-23T02:44:51;99959.72;;;17.79;100.00
48846;BME280;34665;51.886;5.436;2023-03-23T02:47:19;99957.03;;;17.84;100.00
48846;BME280;34665;51.886;5.436;2023-03-23T02:49:46;99946.06;;;18.48;100.00
48846;BME280;34665;51.886;5.436;2023-03-23T02:52:14;99947.94;;;18.22;100.00
48846;BME280;34665;51.886;5.436;2023-03-23T02:54:42;99947.13;;;18.21;100.00
48846;BME280;34665;51.886;5.436;2023-03-23T02:57:09;99962.31;;;18.43;100.00
48846;BME280;34665;51.886;5.436;2023-03-23T02:59:39;99957.72;;;18.59;100.00
48846;BME280;34665;51.886;5.436;2023-03-23T03:02:15;99938.75;;;18.23;100.00
48846;BME280;34665;51.886;5.436;2023-03-23T03:04:41;99955.28;;;18.62;100.00
48846;BME280;34665;51.886;5.436;2023-03-23T03:07:17;99970.13;;;18.24;100.00
48846;BME280;34665;51.886;5.436;2023-03-23T03:09:50;99952.00;;;18.14;100.00
48846;BME280;34665;51.886;5.436;2023-03-23T03:12:33;99954.41;;;18.05;100.00
48846;BME280;34665;51.886;5.436;2023-03-23T03:17:28;99951.75;;;18.46;100.00
48846;BME280;34665;51.886;5.436;2023-03-23T03:19:57;99966.53;;;17.97;100.00
48846;BME280;34665;51.886;5.436;2023-03-23T03:22:25;99962.56;;;18.31;100.00
48846;BME280;34665;51.886;5.436;2023-03-23T03:24:55;99942.75;;;18.04;100.00
48846;BME280;34665;51.886;5.436;2023-03-23T03:27:22;99947.13;;;18.11;100.00
48846;BME280;34665;51.886;5.436;2023-03-23T03:30:04;99943.63;;;18.36;100.00
48846;BME280;34665;51.886;5.436;2023-03-23T03:32:33;99940.66;;;18.38;100.00
48846;BME280;34665;51.886;5.436;2023-03-23T03:35:02;99945.25;;;18.42;100.00
48846;BME280;34665;51.886;5.436;2023-03-23T03:37:32;99935.47;;;18.20;100.00
48846;BME280;34665;51.886;5.436;2023-03-23T03:39:58;99956.56;;;18.03;100.00
48846;BME280;34665;51.886;5.436;2023-03-23T03:42:23;99964.44;;;18.25;100.00
48846;BME280;34665;51.886;5.436;2023-03-23T03:44:51;99943.06;;;18.34;100.00
48846;BME280;34665;51.886;5.436;2023-03-23T03:47:16;99938.22;;;18.62;100.00
48846;BME280;34665;51.886;5.436;2023-03-23T03:49:42;99951.16;;;18.03;100.00
48846;BME280;34665;51.886;5.436;2023-03-23T03:52:08;99934.69;;;18.67;100.00
48846;BME280;34665;51.886;5.436;2023-03-23T03:54:40;99938.47;;;18.66;100.00
48846;BME280;34665;51.886;5.436;2023-03-23T03:57:06;99934.97;;;18.55;100.00
48846;BME280;34665;51.886;5.436;2023-03-23T03:59:51;99956.63;;;18.70;100.00
48846;BME280;34665;51.886;5.436;2023-03-23T04:02:38;99936.84;;;18.54;100.00
48846;BME280;34665;51.886;5.436;2023-03-23T04:05:03;99929.81;;;18.27;100.00
48846;BME280;34665;51.886;5.436;2023-03-23T04:07:31;99934.97;;;18.34;100.00
48846;BME280;34665;51.886;5.436;2023-03-23T04:09:57;99945.22;;;18.16;100.00
48846;BME280;34665;51.886;5.436;2023-03-23T04:12:23;99936.59;;;18.35;100.00
48846;BME280;34665;51.886;5.436;2023-03-23T04:14:55;99931.16;;;18.35;100.00
48846;BME280;34665;51.886;5.436;2023-03-23T04:17:25;99939.28;;;18.66;100.00
48846;BME280;34665;51.886;5.436;2023-03-23T04:19:54;99955.00;;;18.54;100.00
48846;BME280;34665;51.886;5.436;2023-03-23T04:22:24;99965.53;;;18.14;100.00
48846;BME280;34665;51.886;5.436;2023-03-23T04:24:58;99955.53;;;18.35;100.00
48846;BME280;34665;51.886;5.436;2023-03-23T04:27:26;99950.41;;;18.44;100.00
48846;BME280;34665;51.886;5.436;2023-03-23T04:29:55;99968.00;;;18.62;100.00
48846;BME280;34665;51.886;5.436;2023-03-23T04:32:43;99960.69;;;18.62;100.00
48846;BME280;34665;51.886;5.436;2023-03-23T04:35:12;99978.56;;;18.38;100.00
48846;BME280;34665;51.886;5.436;2023-03-23T04:37:46;99986.66;;;18.43;100.00
48846;BME280;34665;51.886;5.436;2023-03-23T04:40:15;99977.72;;;18.42;100.00
48846;BME280;34665;51.886;5.436;2023-03-23T04:42:47;99972.63;;;18.61;100.00
48846;BME280;34665;51.886;5.436;2023-03-23T04:45:33;99983.69;;;18.55;100.00
48846;BME280;34665;51.886;5.436;2023-03-23T04:48:00;99984.22;;;18.36;100.00
48846;BME280;34665;51.886;5.436;2023-03-23T04:50:35;99979.09;;;18.55;100.00
48846;BME280;34665;51.886;5.436;2023-03-23T04:53:11;99967.69;;;18.27;100.00
48846;BME280;34665;51.886;5.436;2023-03-23T04:55:39;99985.00;;;18.16;100.00
48846;BME280;34665;51.886;5.436;2023-03-23T04:58:07;99981.72;;;18.03;100.00
48846;BME280;34665;51.886;5.436;2023-03-23T05:00:38;99981.53;;;18.46;100.00
48846;BME280;34665;51.886;5.436;2023-03-23T05:03:04;99980.72;;;18.56;100.00
48846;BME280;34665;51.886;5.436;2023-03-23T05:05:31;99971.78;;;18.61;100.00
48846;BME280;34665;51.886;5.436;2023-03-23T05:08:03;99984.22;;;18.31;100.00
48846;BME280;34665;51.886;5.436;2023-03-23T05:10:31;99982.31;;;18.26;100.00
48846;BME280;34665;51.886;5.436;2023-03-23T05:13:04;99980.19;;;18.39;100.00
48846;BME280;34665;51.886;5.436;2023-03-23T05:15:30;99988.03;;;18.87;100.00
48846;BME280;34665;51.886;5.436;2023-03-23T05:17:57;99983.41;;;18.46;100.00
48846;BME280;34665;51.886;5.436;2023-03-23T05:20:24;99989.91;;;18.45;100.00
48846;BME280;34665;51.886;5.436;2023-03-23T05:22:55;99973.63;;;18.14;100.00
48846;BME280;34665;51.886;5.436;2023-03-23T05:25:31;99977.69;;;18.22;100.00
48846;BME280;34665;51.886;5.436;2023-03-23T05:28:07;99977.03;;;17.83;100.00
48846;BME280;34665;51.886;5.436;2023-03-23T05:30:50;99987.13;;;18.09;100.00
48846;BME280;34665;51.886;5.436;2023-03-23T05:33:19;99980.94;;;18.18;100.00
48846;BME280;34665;51.886;5.436;2023-03-23T05:35:52;99982.59;;;18.40;100.00
48846;BME280;34665;51.886;5.436;2023-03-23T05:38:24;99987.66;;;18.05;100.00
48846;BME280;34665;51.886;5.436;2023-03-23T05:40:51;99985.84;;;18.27;100.00
48846;BME280;34665;51.886;5.436;2023-03-23T05:43:25;99991.28;;;18.63;100.00
48846;BME280;34665;51.886;5.436;2023-03-23T05:46:20;99996.44;;;18.70;100.00
48846;BME280;34665;51.886;5.436;2023-03-23T05:48:47;99997.66;;;18.00;100.00
48846;BME280;34665;51.886;5.436;2023-03-23T05:51:16;99996.66;;;18.32;100.00
48846;BME280;34665;51.886;5.436;2023-03-23T05:53:43;100000.41;;;18.05;100.00
48846;BME280;34665;51.886;5.436;2023-03-23T05:56:11;99994.81;;;18.58;100.00
48846;BME280;34665;51.886;5.436;2023-03-23T05:58:58;99999.91;;;18.24;100.00
48846;BME280;34665;51.886;5.436;2023-03-23T06:01:25;100012.91;;;18.32;100.00
48846;BME280;34665;51.886;5.436;2023-03-23T06:03:50;100000.47;;;18.41;100.00
48846;BME280;34665;51.886;5.436;2023-03-23T06:06:25;100024.56;;;18.43;100.00
48846;BME280;34665;51.886;5.436;2023-03-23T06:08:58;99999.34;;;18.16;100.00
48846;BME280;34665;51.886;5.436;2023-03-23T06:11:59;100017.81;;;18.51;100.00
48846;BME280;34665;51.886;5.436;2023-03-23T06:14:48;100024.06;;;18.72;100.00
48846;BME280;34665;51.886;5.436;2023-03-23T06:17:17;100024.31;;;18.60;100.00
48846;BME280;34665;51.886;5.436;2023-03-23T06:19:43;100038.13;;;18.69;100.00
48846;BME280;34665;51.886;5.436;2023-03-23T06:22:13;100032.16;;;18.36;100.00
48846;BME280;34665;51.886;5.436;2023-03-23T06:24:58;100039.47;;;18.56;100.00
48846;BME280;34665;51.886;5.436;2023-03-23T06:27:33;100035.69;;;18.62;100.00
48846;BME280;34665;51.886;5.436;2023-03-23T06:29:58;100026.19;;;18.44;100.00
48846;BME280;34665;51.886;5.436;2023-03-23T06:32:25;100031.38;;;18.76;100.00
48846;BME280;34665;51.886;5.436;2023-03-23T06:34:51;100036.69;;;18.19;100.00
48846;BME280;34665;51.886;5.436;2023-03-23T06:37:40;100050.06;;;18.68;100.00
48846;BME280;34665;51.886;5.436;2023-03-23T06:40:25;100055.19;;;18.54;100.00
48846;BME280;34665;51.886;5.436;2023-03-23T06:42:53;100052.25;;;17.97;100.00
48846;BME280;34665;51.886;5.436;2023-03-23T06:46:00;100047.81;;;18.28;100.00
48846;BME280;34665;51.886;5.436;2023-03-23T06:48:46;100069.81;;;18.68;100.00
48846;BME280;34665;51.886;5.436;2023-03-23T06:51:16;100065.63;;;18.14;100.00
48846;BME280;34665;51.886;5.436;2023-03-23T06:53:46;100067.34;;;18.46;100.00
48846;BME280;34665;51.886;5.436;2023-03-23T06:56:13;100071.63;;;18.31;100.00
48846;BME280;34665;51.886;5.436;2023-03-23T06:58:40;100075.91;;;18.12;100.00
48846;BME280;34665;51.886;5.436;2023-03-23T07:01:07;100073.53;;;18.31;100.00
48846;BME280;34665;51.886;5.436;2023-03-23T07:03:38;100079.53;;;18.48;100.00
48846;BME280;34665;51.886;5.436;2023-03-23T07:06:04;100076.00;;;18.48;100.00
48846;BME280;34665;51.886;5.436;2023-03-23T07:08:35;100071.28;;;18.12;100.00
48846;BME280;34665;51.886;5.436;2023-03-23T07:11:01;100081.03;;;18.08;100.00
48846;BME280;34665;51.886;5.436;2023-03-23T07:13:29;100077.03;;;18.31;100.00
48846;BME280;34665;51.886;5.436;2023-03-23T07:15:58;100075.75;;;18.55;100.00
48846;BME280;34665;51.886;5.436;2023-03-23T07:18:25;100078.72;;;18.53;100.00
48846;BME280;34665;51.886;5.436;2023-03-23T07:20:53;100082.00;;;18.66;100.00
48846;BME280;34665;51.886;5.436;2023-03-23T07:23:22;100089.28;;;18.60;100.00
48846;BME280;34665;51.886;5.436;2023-03-23T07:26:01;100094.84;;;18.12;100.00
48846;BME280;34665;51.886;5.436;2023-03-23T07:28:34;100093.47;;;18.04;100.00
48846;BME280;34665;51.886;5.436;2023-03-23T07:31:07;100101.38;;;17.73;100.00
48846;BME280;34665;51.886;5.436;2023-03-23T07:33:35;100097.56;;;17.69;100.00
48846;BME280;34665;51.886;5.436;2023-03-23T07:36:02;100105.91;;;18.05;100.00
48846;BME280;34665;51.886;5.436;2023-03-23T07:38:28;100109.03;;;17.86;100.00
48846;BME280;34665;51.886;5.436;2023-03-23T07:40:56;100111.72;;;17.81;100.00
48846;BME280;34665;51.886;5.436;2023-03-23T07:43:23;100106.38;;;17.54;100.00
48846;BME280;34665;51.886;5.436;2023-03-23T07:46:08;100108.56;;;17.57;100.00
48846;BME280;34665;51.886;5.436;2023-03-23T07:48:43;100105.59;;;17.53;100.00
48846;BME280;34665;51.886;5.436;2023-03-23T07:51:08;100111.06;;;17.63;100.00
48846;BME280;34665;51.886;5.436;2023-03-23T07:53:35;100126.69;;;17.56;100.00
48846;BME280;34665;51.886;5.436;2023-03-23T07:56:21;100126.59;;;17.46;100.00
48846;BME280;34665;51.886;5.436;2023-03-23T07:59:05;100131.56;;;17.59;100.00
48846;BME280;34665;51.886;5.436;2023-03-23T08:01:32;100122.78;;;17.85;100.00
48846;BME280;34665;51.886;5.436;2023-03-23T08:04:23;100118.78;;;17.44;100.00
48846;BME280;34665;51.886;5.436;2023-03-23T08:07:08;100123.44;;;17.54;100.00
48846;BME280;34665;51.886;5.436;2023-03-23T08:09:55;100138.22;;;17.84;100.00
48846;BME280;34665;51.886;5.436;2023-03-23T08:12:34;100137.16;;;17.47;100.00
48846;BME280;34665;51.886;5.436;2023-03-23T08:15:20;100168.50;;;17.43;100.00
48846;BME280;34665;51.886;5.436;2023-03-23T08:18:03;100142.44;;;17.70;100.00
48846;BME280;34665;51.886;5.436;2023-03-23T08:20:47;100151.25;;;17.98;100.00
48846;BME280;34665;51.886;5.436;2023-03-23T08:23:26;100143.97;;;17.98;100.00
48846;BME280;34665;51.886;5.436;2023-03-23T08:26:09;100141.50;;;18.45;100.00
48846;BME280;34665;51.886;5.436;2023-03-23T08:28:50;100136.66;;;17.51;100.00
48846;BME280;34665;51.886;5.436;2023-03-23T08:31:34;100139.16;;;18.05;100.00
48846;BME280;34665;51.886;5.436;2023-03-23T08:34:23;100146.75;;;17.66;100.00
48846;BME280;34665;51.886;5.436;2023-03-23T08:37:20;100136.78;;;17.71;100.00
48846;BME280;34665;51.886;5.436;2023-03-23T08:40:13;100136.94;;;17.97;100.00
48846;BME280;34665;51.886;5.436;2023-03-23T08:42:56;100148.31;;;18.53;100.00
48846;BME280;34665;51.886;5.436;2023-03-23T08:45:40;100160.97;;;17.88;100.00
48846;BME280;34665;51.886;5.436;2023-03-23T08:48:09;100167.19;;;17.89;100.00
48846;BME280;34665;51.886;5.436;2023-03-23T08:50:53;100152.06;;;18.41;100.00
48846;BME280;34665;51.886;5.436;2023-03-23T08:53:33;100158.59;;;18.51;100.00
48846;BME280;34665;51.886;5.436;2023-03-23T08:56:17;100155.53;;;18.31;100.00
48846;BME280;34665;51.886;5.436;2023-03-23T08:59:01;100170.41;;;18.24;100.00
48846;BME280;34665;51.886;5.436;2023-03-23T09:01:49;100163.28;;;18.12;100.00
48846;BME280;34665;51.886;5.436;2023-03-23T09:04:34;100174.28;;;18.48;100.00
48846;BME280;34665;51.886;5.436;2023-03-23T09:07:18;100172.94;;;18.56;100.00
48846;BME280;34665;51.886;5.436;2023-03-23T09:09:44;100181.41;;;18.70;100.00
48846;BME280;34665;51.886;5.436;2023-03-23T09:12:10;100184.50;;;19.10;100.00
48846;BME280;34665;51.886;5.436;2023-03-23T09:14:36;100198.34;;;19.19;100.00
48846;BME280;34665;51.886;5.436;2023-03-23T09:17:03;100198.63;;;19.43;100.00
48846;BME280;34665;51.886;5.436;2023-03-23T09:19:29;100194.78;;;19.03;100.00
48846;BME280;34665;51.886;5.436;2023-03-23T09:21:56;100178.31;;;19.41;100.00
48846;BME280;34665;51.886;5.436;2023-03-23T09:24:21;100175.59;;;19.15;100.00
48846;BME280;34665;51.886;5.436;2023-03-23T09:26:48;100192.25;;;18.81;100.00
48846;BME280;34665;51.886;5.436;2023-03-23T09:29:13;100197.78;;;20.15;100.00
48846;BME280;34665;51.886;5.436;2023-03-23T09:31:39;100190.97;;;20.89;100.00
48846;BME280;34665;51.886;5.436;2023-03-23T09:34:06;100197.56;;;21.57;99.86
48846;BME280;34665;51.886;5.436;2023-03-23T09:36:38;100213.09;;;23.60;87.94
48846;BME280;34665;51.886;5.436;2023-03-23T09:39:07;100200.84;;;21.54;92.94
48846;BME280;34665;51.886;5.436;2023-03-23T09:47:13;100200.47;;;22.93;81.80
48846;BME280;34665;51.886;5.436;2023-03-23T09:49:43;100218.88;;;23.20;78.85
48846;BME280;34665;51.886;5.436;2023-03-23T09:52:14;100220.78;;;24.33;76.20
48846;BME280;34665;51.886;5.436;2023-03-23T09:54:41;100224.78;;;23.28;73.77
48846;BME280;34665;51.886;5.436;2023-03-23T09:57:12;100221.38;;;24.02;73.24
48846;BME280;34665;51.886;5.436;2023-03-23T09:59:39;100222.00;;;22.46;75.77
48846;BME280;34665;51.886;5.436;2023-03-23T10:02:17;100228.09;;;24.24;70.90
48846;BME280;34665;51.886;5.436;2023-03-23T10:04:50;100237.09;;;24.53;68.25
48846;BME280;34665;51.886;5.436;2023-03-23T10:07:20;100273.94;;;23.94;66.66
48846;BME280;34665;51.886;5.436;2023-03-23T10:09:52;100233.72;;;24.00;68.92
48846;BME280;34665;51.886;5.436;2023-03-23T10:19:52;100254.25;;;25.09;64.78
48846;BME280;34665;51.886;5.436;2023-03-23T10:22:25;100234.28;;;24.30;65.06
48846;BME280;34665;51.886;5.436;2023-03-23T10:27:45;100250.34;;;24.17;65.49
48846;BME280;34665;51.886;5.436;2023-03-23T10:30:15;100248.84;;;24.25;63.75
48846;BME280;34665;51.886;5.436;2023-03-23T10:35:17;100261.09;;;25.57;59.35
48846;BME280;34665;51.886;5.436;2023-03-23T10:37:49;100269.91;;;24.53;59.26
48846;BME280;34665;51.886;5.436;2023-03-23T10:40:16;100257.59;;;23.75;60.88
48846;BME280;34665;51.886;5.436;2023-03-23T10:42:43;100270.75;;;25.18;58.13
48846;BME280;34665;51.886;5.436;2023-03-23T10:45:19;100260.69;;;24.62;58.77
48846;BME280;34665;51.886;5.436;2023-03-23T10:50:48;100273.94;;;24.97;59.37
48846;BME280;34665;51.886;5.436;2023-03-23T10:53:16;100290.47;;;26.52;55.87
48846;BME280;34665;51.886;5.436;2023-03-23T10:55:43;100255.47;;;25.17;57.54
48846;BME280;34665;51.886;5.436;2023-03-23T10:58:21;100247.50;;;24.92;59.66
48846;BME280;34665;51.886;5.436;2023-03-23T11:00:47;100255.50;;;25.26;58.77
48846;BME280;34665;51.886;5.436;2023-03-23T11:05:42;100252.38;;;24.68;59.67
48846;BME280;34665;51.886;5.436;2023-03-23T11:08:13;100246.41;;;24.38;59.55
48846;BME280;34665;51.886;5.436;2023-03-23T11:10:40;100258.59;;;25.10;57.34
48846;BME280;34665;51.886;5.436;2023-03-23T11:13:11;100247.13;;;25.90;55.88
48846;BME280;34665;51.886;5.436;2023-03-23T11:15:39;100253.38;;;25.23;56.29
48846;BME280;34665;51.886;5.436;2023-03-23T11:18:05;100255.44;;;23.91;59.23
48846;BME280;34665;51.886;5.436;2023-03-23T11:20:42;100251.56;;;23.26;60.13
48846;BME280;34665;51.886;5.436;2023-03-23T11:23:15;100240.28;;;23.32;61.06
48846;BME280;34665;51.886;5.436;2023-03-23T11:25:50;100253.03;;;22.74;59.35
48846;BME280;34665;51.886;5.436;2023-03-23T11:28:16;100250.34;;;23.13;59.38
48846;BME280;34665;51.886;5.436;2023-03-23T11:30:42;100242.31;;;22.59;59.32
48846;BME280;34665;51.886;5.436;2023-03-23T11:33:08;100248.25;;;23.04;58.83
48846;BME280;34665;51.886;5.436;2023-03-23T11:35:33;100239.06;;;22.32;61.08
48846;BME280;34665;51.886;5.436;2023-03-23T11:37:59;100246.50;;;22.51;61.27
48846;BME280;34665;51.886;5.436;2023-03-23T11:40:26;100244.84;;;22.26;61.42
48846;BME280;34665;51.886;5.436;2023-03-23T11:45:21;100248.22;;;23.48;60.51
48846;BME280;34665;51.886;5.436;2023-03-23T11:50:17;100269.28;;;23.23;59.96
48846;BME280;34665;51.886;5.436;2023-03-23T11:52:52;100245.34;;;23.20;60.66
48846;BME280;34665;51.886;5.436;2023-03-23T11:55:23;100241.94;;;24.14;59.12
48846;BME280;34665;51.886;5.436;2023-03-23T11:57:51;100242.53;;;22.38;61.30
48846;BME280;34665;51.886;5.436;2023-03-23T12:00:18;100227.44;;;22.51;61.46
48846;BME280;34665;51.886;5.436;2023-03-23T12:02:50;100232.91;;;22.70;61.85
48846;BME280;34665;51.886;5.436;2023-03-23T12:05:26;100235.34;;;22.72;61.81
48846;BME280;34665;51.886;5.436;2023-03-23T12:07:56;100240.22;;;22.26;63.09
48846;BME280;34665;51.886;5.436;2023-03-23T12:13:25;100236.50;;;22.17;65.75
48846;BME280;34665;51.886;5.436;2023-03-23T12:18:28;100220.59;;;24.02;66.90
48846;BME280;34665;51.886;5.436;2023-03-23T12:21:15;100223.81;;;22.31;74.74
48846;BME280;34665;51.886;5.436;2023-03-23T12:26:17;100266.75;;;22.15;81.12
48846;BME280;34665;51.886;5.436;2023-03-23T12:33:54;100250.38;;;21.06;92.63
48846;BME280;34665;51.886;5.436;2023-03-23T12:39:00;100245.53;;;19.49;96.93
48846;BME280;34665;51.886;5.436;2023-03-23T12:41:46;100239.28;;;20.26;90.67
48846;BME280;34665;51.886;5.436;2023-03-23T12:44:14;100245.53;;;20.16;86.83
48846;BME280;34665;51.886;5.436;2023-03-23T12:54:28;100227.94;;;19.77;96.36
48846;BME280;34665;51.886;5.436;2023-03-23T12:57:00;100217.91;;;19.62;95.56
48846;BME280;34665;51.886;5.436;2023-03-23T12:59:38;100222.28;;;21.21;86.64
48846;BME280;34665;51.886;5.436;2023-03-23T13:04:48;100216.75;;;24.31;69.00
48846;BME280;34665;51.886;5.436;2023-03-23T13:07:19;100228.31;;;25.98;65.21
48846;BME280;34665;51.886;5.436;2023-03-23T13:09:52;100240.03;;;26.70;61.16
48846;BME280;34665;51.886;5.436;2023-03-23T13:12:22;100246.97;;;26.18;59.98
48846;BME280;34665;51.886;5.436;2023-03-23T13:22:18;100250.41;;;27.79;53.73
48846;BME280;34665;51.886;5.436;2023-03-23T13:24:49;100248.41;;;26.65;56.61
48846;BME280;34665;51.886;5.436;2023-03-23T13:27:16;100238.97;;;25.99;57.62
48846;BME280;34665;51.886;5.436;2023-03-23T13:29:46;100231.19;;;25.24;59.56
48846;BME280;34665;51.886;5.436;2023-03-23T13:32:12;100235.66;;;24.13;62.23
48846;BME280;34665;51.886;5.436;2023-03-23T13:34:41;100236.28;;;23.77;63.94
48846;BME280;34665;51.886;5.436;2023-03-23T13:39:52;100237.94;;;23.01;69.14
48846;BME280;34665;51.886;5.436;2023-03-23T13:42:24;100235.28;;;23.15;71.23
48846;BME280;34665;51.886;5.436;2023-03-23T13:49:57;100238.88;;;22.72;80.17
48846;BME280;34665;51.886;5.436;2023-03-23T13:52:46;100247.28;;;22.27;82.53
48846;BME280;34665;51.886;5.436;2023-03-23T13:55:27;100240.88;;;21.48;100.00
48846;BME280;34665;51.886;5.436;2023-03-23T13:58:09;100227.75;;;20.66;98.75
48846;BME280;34665;51.886;5.436;2023-03-23T14:00:46;100240.41;;;20.91;97.16
48846;BME280;34665;51.886;5.436;2023-03-23T14:03:14;100236.69;;;21.61;85.66
48846;BME280;34665;51.886;5.436;2023-03-23T14:05:44;100228.06;;;21.54;82.66
48846;BME280;34665;51.886;5.436;2023-03-23T14:13:14;100227.03;;;23.01;76.21
48846;BME280;34665;51.886;5.436;2023-03-23T14:15:42;100231.47;;;22.97;73.52
48846;BME280;34665;51.886;5.436;2023-03-23T14:18:11;100231.31;;;23.46;71.49
48846;BME280;34665;51.886;5.436;2023-03-23T14:20:37;100220.72;;;24.11;70.54
48846;BME280;34665;51.886;5.436;2023-03-23T14:23:04;100222.63;;;25.40;63.85
48846;BME280;34665;51.886;5.436;2023-03-23T14:25:31;100235.69;;;26.78;58.15
48846;BME280;34665;51.886;5.436;2023-03-23T14:27:58;100226.38;;;26.88;55.41
48846;BME280;34665;51.886;5.436;2023-03-23T14:30:26;100239.63;;;27.21;54.04